Time;durP1;ratioP1;P1;durP2;ratioP2;P2;SDS_P1;SDS_P2;PMS_P1;PMS_P2;Temp;Humidity;BMP_temperature;BMP_pressure;BME280_temperature;BME280_humidity;BME280_pressure;Samples;Min_cycle;Max_cycle;Signal;HPM_P1;HPM_P2
2022/03/13 00:02:05;;;;;;;27.85;16.83;;;;;;;;;;6116436;23;20505;-90
2022/03/13 00:04:31;;;;;;;28.27;18.15;;;;;;;;;;6117588;23;20044;-89
2022/03/13 00:06:58;;;;;;;26.73;16.52;;;;;;;;;;6117093;23;20538;-89
2022/03/13 00:09:25;;;;;;;26.50;17.10;;;;;;;;;;6116244;23;20351;-90
2022/03/13 00:11:53;;;;;;;25.70;16.63;;;;;;;;;;6117603;23;20017;-89
2022/03/13 00:14:25;;;;;;;27.05;17.30;;;;;;;;;;6118041;23;20021;-89
2022/03/13 00:16:53;;;;;;;26.77;16.60;;;;;;;;;;6091852;23;20404;-89
2022/03/13 00:19:20;;;;;;;30.15;17.92;;;;;;;;;;6117330;23;20013;-89
2022/03/13 00:21:55;;;;;;;25.30;16.15;;;;;;;;;;6118437;23;20096;-90
2022/03/13 00:24:22;;;;;;;28.17;16.92;;;;;;;;;;6118126;23;20018;-89
2022/03/13 00:26:51;;;;;;;27.50;17.83;;;;;;;;;;6093129;23;20080;-89
2022/03/13 00:29:18;;;;;;;27.77;17.10;;;;;;;;;;6119392;23;20033;-89
2022/03/13 00:31:44;;;;;;;28.88;17.08;;;;;;;;;;6094486;23;20264;-89
2022/03/13 00:34:10;;;;;;;30.40;16.75;;;;;;;;;;6119495;23;20454;-90
2022/03/13 00:36:37;;;;;;;27.75;17.80;;;;;;;;;;6091166;23;20013;-89
2022/03/13 00:39:03;;;;;;;28.45;16.95;;;;;;;;;;6117943;23;20184;-89
2022/03/13 00:41:30;;;;;;;26.50;17.48;;;;;;;;;;6093387;23;20010;-89
2022/03/13 00:43:56;;;;;;;24.10;16.40;;;;;;;;;;6070901;23;1184331;-90
2022/03/13 00:46:22;;;;;;;28.88;17.38;;;;;;;;;;6099956;23;20032;-89
2022/03/13 00:48:48;;;;;;;27.73;17.67;;;;;;;;;;6123578;23;20017;-89
2022/03/13 00:51:15;;;;;;;26.73;16.67;;;;;;;;;;6099945;23;20348;-90
2022/03/13 00:53:42;;;;;;;26.50;17.25;;;;;;;;;;6100020;23;20016;-89
2022/03/13 00:56:09;;;;;;;31.27;17.30;;;;;;;;;;6123224;23;20024;-89
2022/03/13 00:58:35;;;;;;;28.67;16.88;;;;;;;;;;6100764;23;20013;-90
2022/03/13 01:01:01;;;;;;;27.15;17.08;;;;;;;;;;6099372;23;20016;-89
2022/03/13 01:03:47;;;;;;;26.35;17.52;;;;;;;;;;6125175;23;20017;-90
2022/03/13 01:06:13;;;;;;;28.27;18.17;;;;;;;;;;6123769;23;20047;-89
2022/03/13 01:08:40;;;;;;;31.25;17.52;;;;;;;;;;6125367;23;20051;-90
2022/03/13 01:11:06;;;;;;;27.38;17.05;;;;;;;;;;6101181;23;20048;-89
2022/03/13 01:13:34;;;;;;;27.52;17.38;;;;;;;;;;6124033;23;20019;-89
2022/03/13 01:16:10;;;;;;;28.10;17.70;;;;;;;;;;6099925;23;20102;-89
2022/03/13 01:18:40;;;;;;;30.45;16.73;;;;;;;;;;6123787;23;20088;-89
2022/03/13 01:21:07;;;;;;;29.60;17.35;;;;;;;;;;6147775;23;20020;-90
2022/03/13 01:23:33;;;;;;;28.95;17.40;;;;;;;;;;6098790;23;20059;-90
2022/03/13 01:26:18;;;;;;;26.33;17.73;;;;;;;;;;6123134;23;20019;-89
2022/03/13 01:28:44;;;;;;;26.63;16.60;;;;;;;;;;6123900;23;20464;-89
2022/03/13 01:31:10;;;;;;;30.33;17.00;;;;;;;;;;6097936;23;20433;-89
2022/03/13 01:33:37;;;;;;;28.95;17.13;;;;;;;;;;6099843;23;20504;-89
2022/03/13 01:36:03;;;;;;;27.35;18.17;;;;;;;;;;6098884;23;20024;-89
2022/03/13 01:38:32;;;;;;;25.45;16.88;;;;;;;;;;6098989;23;20490;-89
2022/03/13 01:40:59;;;;;;;30.10;17.63;;;;;;;;;;6123186;23;20020;-90
2022/03/13 01:43:25;;;;;;;25.73;16.17;;;;;;;;;;6100665;23;20020;-89
2022/03/13 01:45:52;;;;;;;25.05;17.17;;;;;;;;;;6098429;23;20403;-89
2022/03/13 01:48:18;;;;;;;26.65;17.25;;;;;;;;;;6098814;23;20420;-89
2022/03/13 01:50:45;;;;;;;31.92;17.90;;;;;;;;;;6098808;23;20017;-89
2022/03/13 01:53:12;;;;;;;25.75;17.10;;;;;;;;;;6099512;23;20016;-89
2022/03/13 01:55:38;;;;;;;29.15;17.27;;;;;;;;;;6121904;23;20276;-89
2022/03/13 01:58:04;;;;;;;24.95;16.65;;;;;;;;;;6098442;23;20009;-89
2022/03/13 02:00:30;;;;;;;26.80;16.52;;;;;;;;;;6098852;23;20528;-89
2022/03/13 02:02:56;;;;;;;34.42;16.75;;;;;;;;;;6098206;23;20013;-89
2022/03/13 02:05:30;;;;;;;27.08;16.92;;;;;;;;;;6099250;23;20511;-89
2022/03/13 02:07:57;;;;;;;25.95;16.98;;;;;;;;;;6122929;23;20137;-89
2022/03/13 02:10:23;;;;;;;24.13;16.50;;;;;;;;;;6099164;23;20013;-89
2022/03/13 02:12:49;;;;;;;25.52;16.42;;;;;;;;;;6098992;23;20013;-89
2022/03/13 02:15:15;;;;;;;26.23;16.50;;;;;;;;;;6098224;23;20016;-89
2022/03/13 02:17:41;;;;;;;30.90;17.83;;;;;;;;;;6123785;23;20079;-89
2022/03/13 02:20:13;;;;;;;24.98;16.85;;;;;;;;;;6099305;23;20336;-89
2022/03/13 02:22:39;;;;;;;27.33;17.17;;;;;;;;;;6122712;23;20096;-89
2022/03/13 02:25:05;;;;;;;25.50;17.27;;;;;;;;;;6098651;23;20031;-89
2022/03/13 02:27:33;;;;;;;26.58;17.45;;;;;;;;;;6098846;23;20088;-89
2022/03/13 02:29:59;;;;;;;25.45;17.25;;;;;;;;;;6123851;23;20020;-89
2022/03/13 02:32:25;;;;;;;27.10;16.77;;;;;;;;;;6095372;23;20009;-90
2022/03/13 02:34:51;;;;;;;25.00;16.42;;;;;;;;;;6100223;23;20095;-90
2022/03/13 02:37:35;;;;;;;24.42;16.98;;;;;;;;;;6098309;23;20134;-89
2022/03/13 02:40:02;;;;;;;24.70;17.08;;;;;;;;;;6123987;23;20471;-90
2022/03/13 02:42:28;;;;;;;29.23;16.55;;;;;;;;;;6101207;23;20017;-89
2022/03/13 02:44:54;;;;;;;27.63;16.45;;;;;;;;;;6102081;23;20009;-89
2022/03/13 02:47:20;;;;;;;26.63;16.85;;;;;;;;;;6125678;23;20021;-90
2022/03/13 02:49:46;;;;;;;25.70;17.38;;;;;;;;;;6101790;23;20013;-89
2022/03/13 02:52:13;;;;;;;30.70;16.52;;;;;;;;;;6102185;23;20017;-90
2022/03/13 02:54:39;;;;;;;24.80;16.48;;;;;;;;;;6102175;23;20024;-89
2022/03/13 02:57:05;;;;;;;26.30;16.73;;;;;;;;;;6101144;23;20228;-89
2022/03/13 02:59:31;;;;;;;22.92;16.40;;;;;;;;;;6126887;23;20096;-89
2022/03/13 03:01:59;;;;;;;26.05;16.65;;;;;;;;;;6111627;23;20326;-90
2022/03/13 03:04:25;;;;;;;30.17;18.13;;;;;;;;;;6137596;23;20009;-91
2022/03/13 03:06:54;;;;;;;24.65;16.42;;;;;;;;;;6113934;23;20052;-90
2022/03/13 03:09:21;;;;;;;29.75;17.88;;;;;;;;;;6143733;23;20059;-90
2022/03/13 03:11:47;;;;;;;28.67;16.77;;;;;;;;;;6126870;23;20013;-89
2022/03/13 03:14:15;;;;;;;30.95;16.77;;;;;;;;;;6103153;23;20028;-90
2022/03/13 03:16:41;;;;;;;27.17;17.27;;;;;;;;;;6125284;23;20021;-90
2022/03/13 03:19:07;;;;;;;25.30;17.02;;;;;;;;;;6127984;23;20044;-89
2022/03/13 03:21:33;;;;;;;27.73;17.38;;;;;;;;;;6128445;23;20028;-89
2022/03/13 03:24:00;;;;;;;27.27;17.48;;;;;;;;;;6127199;23;20044;-89
2022/03/13 03:26:26;;;;;;;26.63;17.73;;;;;;;;;;6126662;23;20446;-89
2022/03/13 03:28:52;;;;;;;28.98;17.85;;;;;;;;;;6127349;23;20056;-90
2022/03/13 03:31:19;;;;;;;28.10;17.42;;;;;;;;;;6101814;23;20529;-89
2022/03/13 03:33:45;;;;;;;26.85;17.90;;;;;;;;;;6100801;23;20309;-89
2022/03/13 03:36:15;;;;;;;28.88;17.85;;;;;;;;;;6100455;23;20021;-89
2022/03/13 03:38:41;;;;;;;28.80;18.15;;;;;;;;;;6127323;23;20009;-89
2022/03/13 03:41:07;;;;;;;29.73;17.60;;;;;;;;;;6124347;23;20530;-90
2022/03/13 03:43:34;;;;;;;29.42;18.50;;;;;;;;;;6100956;23;20013;-89
2022/03/13 03:46:00;;;;;;;29.15;17.75;;;;;;;;;;6101786;23;20170;-89
2022/03/13 03:48:26;;;;;;;26.10;17.08;;;;;;;;;;6125421;23;20021;-90
2022/03/13 03:50:52;;;;;;;28.60;17.20;;;;;;;;;;6102070;23;20013;-89
2022/03/13 03:53:18;;;;;;;29.00;18.00;;;;;;;;;;6098122;23;20335;-89
2022/03/13 03:55:44;;;;;;;27.25;18.15;;;;;;;;;;6124572;23;20760;-89
2022/03/13 03:58:10;;;;;;;28.50;18.00;;;;;;;;;;6125361;23;20068;-89
2022/03/13 04:00:37;;;;;;;26.60;17.92;;;;;;;;;;6100314;23;20013;-89
2022/03/13 04:03:03;;;;;;;25.35;16.83;;;;;;;;;;6099519;23;20059;-89
2022/03/13 04:05:29;;;;;;;28.65;18.17;;;;;;;;;;6100148;23;20017;-89
2022/03/13 04:07:55;;;;;;;31.20;18.35;;;;;;;;;;6100659;23;20019;-90
2022/03/13 04:10:21;;;;;;;29.45;18.70;;;;;;;;;;6124342;23;20017;-90
2022/03/13 04:12:47;;;;;;;28.08;18.40;;;;;;;;;;6098204;23;20445;-89
2022/03/13 04:15:13;;;;;;;29.30;17.27;;;;;;;;;;6123970;23;20020;-90
2022/03/13 04:17:40;;;;;;;32.53;20.05;;;;;;;;;;6099921;23;20049;-90
2022/03/13 04:20:06;;;;;;;30.77;18.67;;;;;;;;;;6100215;23;20012;-91
2022/03/13 04:22:33;;;;;;;31.75;18.02;;;;;;;;;;6122948;23;20234;-90
2022/03/13 04:24:59;;;;;;;30.98;17.88;;;;;;;;;;6098680;23;20020;-91
2022/03/13 04:27:25;;;;;;;27.15;17.02;;;;;;;;;;6099849;23;20137;-91
2022/03/13 04:29:51;;;;;;;30.52;17.67;;;;;;;;;;6099417;23;20134;-90
2022/03/13 04:32:22;;;;;;;27.77;17.52;;;;;;;;;;6099182;23;20113;-90
2022/03/13 04:34:49;;;;;;;26.05;16.70;;;;;;;;;;6101778;23;20021;-90
2022/03/13 04:37:16;;;;;;;28.67;17.65;;;;;;;;;;6124359;23;20025;-89
2022/03/13 04:39:42;;;;;;;29.88;17.73;;;;;;;;;;6099836;23;20024;-88
2022/03/13 04:42:09;;;;;;;27.35;17.38;;;;;;;;;;6122960;23;20016;-88
2022/03/13 04:44:35;;;;;;;27.10;16.30;;;;;;;;;;6101385;23;20020;-88
2022/03/13 04:47:01;;;;;;;32.28;16.30;;;;;;;;;;6098570;23;20019;-89
2022/03/13 04:49:28;;;;;;;26.13;16.15;;;;;;;;;;6098990;23;20072;-88
2022/03/13 04:51:54;;;;;;;25.15;16.38;;;;;;;;;;6124039;23;20067;-87
2022/03/13 04:54:20;;;;;;;23.42;15.65;;;;;;;;;;6098891;23;20021;-88
2022/03/13 04:56:46;;;;;;;24.77;15.93;;;;;;;;;;6099501;23;20067;-88
2022/03/13 04:59:13;;;;;;;27.50;16.88;;;;;;;;;;6099162;23;20024;-89
2022/03/13 05:01:40;;;;;;;27.80;16.48;;;;;;;;;;6098674;23;20048;-88
2022/03/13 05:04:06;;;;;;;23.98;16.50;;;;;;;;;;6099320;23;20498;-88
2022/03/13 05:06:37;;;;;;;26.90;16.05;;;;;;;;;;6122649;23;20022;-88
2022/03/13 05:09:05;;;;;;;28.38;15.77;;;;;;;;;;6125009;23;20012;-88
2022/03/13 05:11:31;;;;;;;28.38;17.15;;;;;;;;;;6128448;23;20032;-89
2022/03/13 05:13:57;;;;;;;24.50;16.40;;;;;;;;;;6099513;23;20490;-88
2022/03/13 05:16:26;;;;;;;28.25;17.48;;;;;;;;;;6099144;23;20068;-89
2022/03/13 05:18:52;;;;;;;26.25;16.63;;;;;;;;;;6100034;23;20021;-88
2022/03/13 05:21:18;;;;;;;25.80;16.27;;;;;;;;;;6098835;23;20024;-89
2022/03/13 05:23:44;;;;;;;27.67;17.52;;;;;;;;;;6099819;23;20250;-88
2022/03/13 05:26:10;;;;;;;25.73;16.10;;;;;;;;;;6120154;23;20017;-89
2022/03/13 05:28:37;;;;;;;28.98;16.65;;;;;;;;;;6097944;23;20013;-88
2022/03/13 05:31:03;;;;;;;26.75;17.23;;;;;;;;;;6097451;23;20486;-89
2022/03/13 05:33:30;;;;;;;28.55;16.80;;;;;;;;;;6123163;23;20047;-89
2022/03/13 05:35:57;;;;;;;27.13;16.63;;;;;;;;;;6098891;23;20021;-89
2022/03/13 05:38:23;;;;;;;26.40;15.65;;;;;;;;;;6123388;23;20017;-88
2022/03/13 05:40:49;;;;;;;26.42;16.85;;;;;;;;;;6098681;23;20013;-88
2022/03/13 05:43:15;;;;;;;28.02;16.67;;;;;;;;;;6100049;23;20013;-89
2022/03/13 05:45:42;;;;;;;26.45;16.38;;;;;;;;;;6101534;23;20017;-89
2022/03/13 05:48:09;;;;;;;26.05;17.05;;;;;;;;;;6110153;23;20017;-88
2022/03/13 05:50:35;;;;;;;26.85;17.05;;;;;;;;;;6135770;23;20055;-90
2022/03/13 05:53:02;;;;;;;31.40;17.08;;;;;;;;;;6135492;23;20021;-88
2022/03/13 05:55:28;;;;;;;26.23;16.80;;;;;;;;;;6134060;23;20017;-89
2022/03/13 05:57:55;;;;;;;27.05;16.45;;;;;;;;;;6112530;23;20423;-89
2022/03/13 06:00:22;;;;;;;26.25;16.38;;;;;;;;;;6134269;23;20378;-89
2022/03/13 06:02:48;;;;;;;24.55;15.57;;;;;;;;;;6134991;23;20437;-88
2022/03/13 06:05:18;;;;;;;27.48;16.58;;;;;;;;;;6103918;23;20096;-90
2022/03/13 06:07:45;;;;;;;25.52;15.90;;;;;;;;;;6126622;23;20013;-88
2022/03/13 06:10:11;;;;;;;26.65;15.95;;;;;;;;;;6103736;23;20024;-88
2022/03/13 06:12:38;;;;;;;24.80;15.73;;;;;;;;;;6127036;23;20017;-88
2022/03/13 06:15:06;;;;;;;25.67;15.82;;;;;;;;;;6141684;23;20215;-91
2022/03/13 06:17:32;;;;;;;25.85;15.65;;;;;;;;;;6139089;23;20017;-89
2022/03/13 06:19:58;;;;;;;25.20;15.27;;;;;;;;;;6142243;23;20017;-89
2022/03/13 06:22:25;;;;;;;22.73;14.73;;;;;;;;;;6112645;23;20421;-89
2022/03/13 06:24:52;;;;;;;23.90;14.82;;;;;;;;;;6126545;23;20434;-89
2022/03/13 06:27:18;;;;;;;27.33;15.70;;;;;;;;;;6102819;23;20387;-89
2022/03/13 06:29:45;;;;;;;31.60;18.30;;;;;;;;;;6103396;23;20040;-88
2022/03/13 06:32:11;;;;;;;38.00;17.75;;;;;;;;;;6127648;23;20021;-90
2022/03/13 06:34:37;;;;;;;23.48;15.13;;;;;;;;;;6127576;23;20055;-89
2022/03/13 06:37:04;;;;;;;24.60;15.68;;;;;;;;;;6125629;23;20024;-90
2022/03/13 06:39:30;;;;;;;24.63;15.98;;;;;;;;;;6125186;23;20068;-89
2022/03/13 06:41:57;;;;;;;25.20;15.07;;;;;;;;;;6124720;23;20013;-89
2022/03/13 06:44:23;;;;;;;28.23;15.32;;;;;;;;;;6126121;23;20017;-89
2022/03/13 06:46:49;;;;;;;22.25;14.48;;;;;;;;;;6125865;23;20017;-89
2022/03/13 06:49:16;;;;;;;23.63;14.73;;;;;;;;;;6125866;23;20251;-88
2022/03/13 06:51:42;;;;;;;23.95;14.38;;;;;;;;;;6101204;23;20017;-90
2022/03/13 06:54:09;;;;;;;24.35;14.80;;;;;;;;;;6125514;23;20027;-90
2022/03/13 06:56:36;;;;;;;27.50;14.32;;;;;;;;;;6103000;23;20017;-89
2022/03/13 06:59:05;;;;;;;25.60;15.07;;;;;;;;;;6101579;23;20048;-90
2022/03/13 07:01:32;;;;;;;23.38;14.48;;;;;;;;;;6124352;23;20063;-89
2022/03/13 07:03:58;;;;;;;24.90;14.95;;;;;;;;;;6120733;23;20032;-89
2022/03/13 07:06:24;;;;;;;24.73;14.35;;;;;;;;;;6124836;23;20020;-89
2022/03/13 07:08:50;;;;;;;24.20;13.95;;;;;;;;;;6102696;23;20020;-90
2022/03/13 07:11:16;;;;;;;162.90;76.47;;;;;;;;;;6103103;23;20089;-89
2022/03/13 07:13:44;;;;;;;30.48;18.23;;;;;;;;;;6102045;23;20057;-91
2022/03/13 07:16:11;;;;;;;23.33;14.75;;;;;;;;;;6126965;23;20021;-90
2022/03/13 07:18:38;;;;;;;23.30;15.15;;;;;;;;;;6127482;23;20013;-89
2022/03/13 07:21:04;;;;;;;23.20;14.25;;;;;;;;;;6103136;23;20015;-89
2022/03/13 07:23:30;;;;;;;26.65;14.73;;;;;;;;;;6102160;23;20016;-89
2022/03/13 07:25:57;;;;;;;22.85;14.80;;;;;;;;;;6103230;23;20040;-89
2022/03/13 07:28:23;;;;;;;26.55;15.18;;;;;;;;;;6126637;23;20453;-90
2022/03/13 07:30:49;;;;;;;26.73;15.18;;;;;;;;;;6104961;23;20529;-89
2022/03/13 07:33:16;;;;;;;24.33;15.00;;;;;;;;;;6127708;23;20017;-89
2022/03/13 07:35:44;;;;;;;22.70;15.15;;;;;;;;;;6104285;23;20013;-88
2022/03/13 07:38:10;;;;;;;23.48;14.60;;;;;;;;;;6128551;23;20447;-91
2022/03/13 07:40:36;;;;;;;24.33;14.73;;;;;;;;;;6128753;23;20013;-89
2022/03/13 07:43:03;;;;;;;22.65;14.32;;;;;;;;;;6127801;23;20088;-89
2022/03/13 07:45:29;;;;;;;23.65;14.75;;;;;;;;;;6128225;23;20021;-89
2022/03/13 07:47:57;;;;;;;22.40;13.88;;;;;;;;;;6128604;23;20013;-88
2022/03/13 07:50:24;;;;;;;22.65;14.02;;;;;;;;;;6105203;23;20056;-91
2022/03/13 07:52:50;;;;;;;22.55;13.98;;;;;;;;;;6128611;23;20021;-91
2022/03/13 07:55:17;;;;;;;22.45;14.80;;;;;;;;;;6129020;23;20013;-89
2022/03/13 07:57:43;;;;;;;24.77;14.68;;;;;;;;;;6104041;23;20390;-89
2022/03/13 08:00:11;;;;;;;25.10;13.25;;;;;;;;;;6104477;23;20097;-88
2022/03/13 08:02:38;;;;;;;22.50;14.25;;;;;;;;;;6128265;23;20013;-90
2022/03/13 08:05:04;;;;;;;22.88;14.15;;;;;;;;;;6129199;23;20045;-89
2022/03/13 08:07:30;;;;;;;22.63;14.48;;;;;;;;;;6129288;23;20017;-89
2022/03/13 08:09:58;;;;;;;23.70;14.77;;;;;;;;;;6103955;23;20055;-89
2022/03/13 08:12:24;;;;;;;23.08;14.15;;;;;;;;;;6104853;23;20326;-88
2022/03/13 08:14:52;;;;;;;23.80;13.77;;;;;;;;;;6103447;23;20024;-89
2022/03/13 08:17:19;;;;;;;24.77;13.95;;;;;;;;;;6103711;23;20023;-89
2022/03/13 08:19:48;;;;;;;21.05;12.85;;;;;;;;;;6129054;23;20023;-89
2022/03/13 08:22:16;;;;;;;46.17;32.97;;;;;;;;;;6101897;23;20016;-88
2022/03/13 08:24:42;;;;;;;26.65;16.45;;;;;;;;;;6105255;23;20017;-88
2022/03/13 08:27:08;;;;;;;23.50;14.05;;;;;;;;;;6103121;23;20017;-88
2022/03/13 08:29:34;;;;;;;23.75;13.52;;;;;;;;;;6101624;23;20067;-88
2022/03/13 08:32:01;;;;;;;22.17;12.93;;;;;;;;;;6128445;23;20474;-88
2022/03/13 08:34:29;;;;;;;19.00;12.57;;;;;;;;;;6098278;23;20092;-88
2022/03/13 08:36:56;;;;;;;20.73;13.00;;;;;;;;;;6125206;23;20024;-88
2022/03/13 08:39:22;;;;;;;17.67;12.45;;;;;;;;;;6126291;23;20016;-88
2022/03/13 08:41:48;;;;;;;20.73;12.90;;;;;;;;;;6127985;23;20016;-87
2022/03/13 08:44:14;;;;;;;21.13;12.55;;;;;;;;;;6124466;23;20013;-87
2022/03/13 08:46:41;;;;;;;19.20;13.35;;;;;;;;;;6101247;23;20017;-88
2022/03/13 08:49:08;;;;;;;22.35;12.88;;;;;;;;;;6100685;23;20023;-87
2022/03/13 08:51:34;;;;;;;21.73;12.57;;;;;;;;;;6100157;23;20017;-88
2022/03/13 08:54:01;;;;;;;19.98;12.75;;;;;;;;;;6100668;23;20017;-88
2022/03/13 08:56:27;;;;;;;22.90;12.80;;;;;;;;;;6125342;23;20020;-88
2022/03/13 08:58:55;;;;;;;18.15;12.38;;;;;;;;;;6098741;23;20071;-88
2022/03/13 09:01:22;;;;;;;19.50;12.88;;;;;;;;;;6101004;23;20017;-87
2022/03/13 09:03:48;;;;;;;20.85;13.60;;;;;;;;;;6100182;23;20401;-88
2022/03/13 09:06:15;;;;;;;19.23;12.55;;;;;;;;;;6125568;23;20029;-88
2022/03/13 09:08:41;;;;;;;18.00;12.07;;;;;;;;;;6100322;23;20020;-88
2022/03/13 09:11:08;;;;;;;20.92;13.45;;;;;;;;;;6125554;23;20051;-88
2022/03/13 09:13:35;;;;;;;20.38;12.73;;;;;;;;;;6100767;23;20026;-88
2022/03/13 09:16:01;;;;;;;18.55;12.45;;;;;;;;;;6101738;23;20013;-88
2022/03/13 09:18:30;;;;;;;25.63;13.38;;;;;;;;;;6100476;23;20013;-88
2022/03/13 09:20:56;;;;;;;21.45;12.55;;;;;;;;;;6101036;23;20114;-89
2022/03/13 09:23:23;;;;;;;21.02;12.93;;;;;;;;;;6106394;23;20024;-87
2022/03/13 09:25:53;;;;;;;21.25;12.80;;;;;;;;;;6129082;23;20443;-88
2022/03/13 09:28:20;;;;;;;19.05;12.07;;;;;;;;;;6147545;23;20799;-88
2022/03/13 09:30:46;;;;;;;20.55;12.52;;;;;;;;;;6101011;23;20423;-88
2022/03/13 09:33:12;;;;;;;20.20;12.55;;;;;;;;;;6100707;23;20332;-88
2022/03/13 09:35:39;;;;;;;19.40;12.00;;;;;;;;;;6123354;23;20044;-87
2022/03/13 09:38:06;;;;;;;20.90;12.60;;;;;;;;;;6124537;23;20473;-87
2022/03/13 09:40:35;;;;;;;18.92;12.95;;;;;;;;;;6125055;23;20012;-88
2022/03/13 09:43:06;;;;;;;20.58;12.43;;;;;;;;;;6122420;23;20169;-88
2022/03/13 10:08:57;;;;;;;19.50;13.00;;;;;;;;;;6205361;23;20032;-87
2022/03/13 10:11:33;;;;;;;20.15;13.18;;;;;;;;;;6129820;23;20401;-87
2022/03/13 10:14:06;;;;;;;17.48;12.40;;;;;;;;;;6129294;23;20404;-87
2022/03/13 10:16:37;;;;;;;21.42;12.57;;;;;;;;;;6155465;23;20564;-85
2022/03/13 10:19:15;;;;;;;19.92;12.65;;;;;;;;;;6181773;23;20059;-87
2022/03/13 10:22:02;;;;;;;18.50;12.48;;;;;;;;;;6180106;23;20191;-87
2022/03/13 10:24:28;;;;;;;18.25;12.57;;;;;;;;;;6139437;23;20471;-88
2022/03/13 10:27:20;;;;;;;26.05;12.90;;;;;;;;;;6181295;23;20016;-88
2022/03/13 10:29:47;;;;;;;21.65;13.02;;;;;;;;;;6151458;23;20453;-88
2022/03/13 10:32:14;;;;;;;20.30;13.15;;;;;;;;;;6181593;23;20352;-88
2022/03/13 10:34:41;;;;;;;22.38;13.80;;;;;;;;;;6180161;23;20017;-87
2022/03/13 10:37:08;;;;;;;20.90;12.52;;;;;;;;;;6181998;23;20016;-86
2022/03/13 10:39:35;;;;;;;21.77;12.38;;;;;;;;;;6181098;23;20432;-87
2022/03/13 10:42:03;;;;;;;21.17;13.38;;;;;;;;;;6182643;23;20047;-88
2022/03/13 10:44:36;;;;;;;19.85;13.15;;;;;;;;;;6179598;23;20012;-89
2022/03/13 10:47:08;;;;;;;21.52;12.65;;;;;;;;;;6180681;23;20374;-89
2022/03/13 10:49:38;;;;;;;18.35;12.85;;;;;;;;;;6130321;23;20418;-89
2022/03/13 10:52:16;;;;;;;23.73;13.32;;;;;;;;;;6182571;23;20090;-89
2022/03/13 10:54:46;;;;;;;21.38;13.38;;;;;;;;;;6186205;23;20248;-87
2022/03/13 10:57:13;;;;;;;21.52;13.57;;;;;;;;;;6131678;23;20027;-89
2022/03/13 10:59:43;;;;;;;22.63;13.88;;;;;;;;;;6135503;23;20095;-88
2022/03/13 11:02:22;;;;;;;21.20;13.38;;;;;;;;;;6181321;23;20322;-88
2022/03/13 11:04:52;;;;;;;20.15;13.68;;;;;;;;;;6181533;23;20343;-88
2022/03/13 11:07:19;;;;;;;20.75;13.23;;;;;;;;;;6176511;23;20096;-88
2022/03/13 11:09:46;;;;;;;17.52;12.52;;;;;;;;;;6130945;23;20103;-89
2022/03/13 11:12:21;;;;;;;21.02;13.40;;;;;;;;;;6178505;23;20489;-88
2022/03/13 11:14:53;;;;;;;24.17;13.40;;;;;;;;;;6178212;23;20016;-88
2022/03/13 11:17:24;;;;;;;19.95;13.68;;;;;;;;;;6179693;23;20525;-89
2022/03/13 11:19:56;;;;;;;19.88;13.70;;;;;;;;;;6178520;23;20047;-89
2022/03/13 11:22:22;;;;;;;25.92;14.63;;;;;;;;;;6178853;23;20013;-88
2022/03/13 11:24:49;;;;;;;24.92;14.07;;;;;;;;;;6179126;23;20095;-88
2022/03/13 11:27:16;;;;;;;19.98;13.73;;;;;;;;;;6179452;23;20090;-89
2022/03/13 11:29:43;;;;;;;22.50;13.90;;;;;;;;;;6156469;23;20016;-87
2022/03/13 11:32:27;;;;;;;20.05;13.48;;;;;;;;;;6179939;23;20449;-88
2022/03/13 11:35:18;;;;;;;18.80;13.07;;;;;;;;;;6178801;23;20052;-88
2022/03/13 11:37:44;;;;;;;21.77;13.93;;;;;;;;;;6178014;23;20021;-89
2022/03/13 11:40:11;;;;;;;19.45;14.10;;;;;;;;;;6178948;23;20013;-88
2022/03/13 11:42:51;;;;;;;18.67;13.27;;;;;;;;;;6178377;23;20112;-88
2022/03/13 11:47:56;;;;;;;18.98;13.57;;;;;;;;;;6204388;23;20063;-87
2022/03/13 11:50:41;;;;;;;18.67;13.40;;;;;;;;;;6178491;23;20013;-88
2022/03/13 11:53:36;;;;;;;20.42;13.82;;;;;;;;;;6177966;23;20025;-87
2022/03/13 11:56:02;;;;;;;19.23;13.82;;;;;;;;;;6119221;23;20196;-89
2022/03/13 11:58:41;;;;;;;21.13;12.93;;;;;;;;;;6180745;23;20012;-88
2022/03/13 12:01:15;;;;;;;18.70;13.32;;;;;;;;;;6180158;23;20016;-88
2022/03/13 12:04:11;;;;;;;21.67;13.43;;;;;;;;;;6181991;23;20012;-88
2022/03/13 12:06:41;;;;;;;19.98;14.63;;;;;;;;;;6180547;23;20012;-88
2022/03/13 12:09:08;;;;;;;21.33;14.63;;;;;;;;;;6179720;23;20115;-88
2022/03/13 12:11:42;;;;;;;21.83;13.00;;;;;;;;;;6180448;23;20039;-88
2022/03/13 12:14:12;;;;;;;19.38;13.38;;;;;;;;;;6130339;23;20428;-87
2022/03/13 12:16:40;;;;;;;25.83;14.63;;;;;;;;;;6179316;23;20052;-88
2022/03/13 12:19:07;;;;;;;17.88;13.48;;;;;;;;;;6181262;23;20015;-88
2022/03/13 12:21:33;;;;;;;20.67;14.07;;;;;;;;;;6132513;23;20017;-88
2022/03/13 12:24:32;;;;;;;20.55;13.23;;;;;;;;;;6178325;23;20008;-88
2022/03/13 12:27:01;;;;;;;20.17;13.95;;;;;;;;;;6138488;23;20017;-88
2022/03/13 12:29:28;;;;;;;19.70;13.88;;;;;;;;;;6179814;23;20338;-88
2022/03/13 12:31:54;;;;;;;19.92;13.98;;;;;;;;;;6155363;23;20016;-88
2022/03/13 12:34:24;;;;;;;17.58;13.65;;;;;;;;;;6128315;23;20103;-88
2022/03/13 12:36:50;;;;;;;21.80;14.00;;;;;;;;;;6132989;23;20039;-89
2022/03/13 12:39:17;;;;;;;20.25;13.82;;;;;;;;;;6156389;23;20067;-88
2022/03/13 12:41:44;;;;;;;20.98;13.60;;;;;;;;;;6130117;23;20238;-88
2022/03/13 12:44:16;;;;;;;20.50;13.40;;;;;;;;;;6177455;23;20008;-88
2022/03/13 12:46:42;;;;;;;19.35;13.77;;;;;;;;;;6180421;23;20017;-88
2022/03/13 12:49:12;;;;;;;19.92;13.40;;;;;;;;;;6180974;23;20024;-87
2022/03/13 12:51:46;;;;;;;18.35;13.02;;;;;;;;;;6181020;23;20039;-90
2022/03/13 12:54:17;;;;;;;21.30;13.93;;;;;;;;;;6127539;23;20021;-88
2022/03/13 12:56:45;;;;;;;20.08;13.25;;;;;;;;;;6178344;23;20021;-88
2022/03/13 12:59:30;;;;;;;20.83;13.48;;;;;;;;;;6179738;23;20047;-88
2022/03/13 13:02:05;;;;;;;19.83;13.35;;;;;;;;;;6178432;23;20012;-88
2022/03/13 13:04:32;;;;;;;18.88;13.40;;;;;;;;;;6175231;23;20013;-88
2022/03/13 13:06:58;;;;;;;16.88;12.35;;;;;;;;;;6177745;23;20020;-89
2022/03/13 13:09:28;;;;;;;17.27;13.05;;;;;;;;;;6130043;23;20425;-87
2022/03/13 13:11:55;;;;;;;19.80;13.68;;;;;;;;;;6177812;23;20017;-89
2022/03/13 13:14:25;;;;;;;21.08;13.45;;;;;;;;;;6177857;23;20414;-88
2022/03/13 13:16:52;;;;;;;19.15;13.48;;;;;;;;;;6126856;23;20020;-88
2022/03/13 13:19:19;;;;;;;20.95;13.73;;;;;;;;;;6127930;23;20429;-88
2022/03/13 13:21:56;;;;;;;20.42;13.77;;;;;;;;;;6176581;23;20016;-88
2022/03/13 13:24:32;;;;;;;18.67;13.02;;;;;;;;;;6176150;23;20016;-89
2022/03/13 13:26:58;;;;;;;20.30;12.45;;;;;;;;;;6177721;23;20470;-89
2022/03/13 13:29:41;;;;;;;15.82;12.65;;;;;;;;;;6177561;23;20048;-89
2022/03/13 13:32:16;;;;;;;24.08;13.90;;;;;;;;;;6176386;23;20055;-88
2022/03/13 13:34:59;;;;;;;21.27;12.35;;;;;;;;;;6178336;23;20028;-87
2022/03/13 13:37:25;;;;;;;;;;;;;;;;;;6178121;23;20027;-89
2022/03/13 13:40:01;;;;;;;18.02;12.68;;;;;;;;;;6177574;23;19979;-88
2022/03/13 13:42:32;;;;;;;18.42;11.95;;;;;;;;;;6178858;23;20013;-88
2022/03/13 13:44:59;;;;;;;17.02;12.07;;;;;;;;;;6180298;23;20012;-86
2022/03/13 13:47:26;;;;;;;19.33;13.23;;;;;;;;;;6182863;23;20020;-86
2022/03/13 13:49:52;;;;;;;16.50;12.25;;;;;;;;;;6129339;23;20020;-88
2022/03/13 13:52:18;;;;;;;18.35;13.30;;;;;;;;;;6180912;23;20023;-86
2022/03/13 13:54:44;;;;;;;15.70;12.00;;;;;;;;;;6130434;23;20449;-87
2022/03/13 13:57:20;;;;;;;17.52;12.98;;;;;;;;;;6129310;23;20071;-88
2022/03/13 13:59:46;;;;;;;16.95;12.95;;;;;;;;;;6177611;23;20044;-88
2022/03/13 14:02:15;;;;;;;16.52;12.30;;;;;;;;;;6179641;23;20509;-89
2022/03/13 14:04:42;;;;;;;21.73;12.48;;;;;;;;;;6178135;23;20012;-86
2022/03/13 14:07:09;;;;;;;14.35;11.02;;;;;;;;;;6176675;23;20099;-85
2022/03/13 14:09:35;;;;;;;17.73;10.68;;;;;;;;;;6178159;23;20055;-90
2022/03/13 14:12:02;;;;;;;17.35;11.70;;;;;;;;;;6128844;23;20020;-88
2022/03/13 14:14:28;;;;;;;16.45;11.85;;;;;;;;;;6177797;23;20256;-89
2022/03/13 14:16:55;;;;;;;13.93;10.95;;;;;;;;;;6179044;23;20016;-88
2022/03/13 14:19:22;;;;;;;15.00;11.55;;;;;;;;;;6177495;23;20016;-88
2022/03/13 14:21:49;;;;;;;14.70;11.77;;;;;;;;;;6128813;23;20055;-88
2022/03/13 14:24:15;;;;;;;16.08;12.32;;;;;;;;;;6127231;23;20013;-88
2022/03/13 14:26:41;;;;;;;15.43;12.05;;;;;;;;;;6176555;23;20013;-87
2022/03/13 14:29:07;;;;;;;13.90;10.95;;;;;;;;;;6177708;23;20489;-87
2022/03/13 14:31:34;;;;;;;16.33;11.32;;;;;;;;;;6127386;23;20338;-86
2022/03/13 14:34:00;;;;;;;12.43;10.30;;;;;;;;;;6177125;23;20024;-89
2022/03/13 14:36:26;;;;;;;14.07;11.20;;;;;;;;;;6130439;23;20457;-87
2022/03/13 14:38:52;;;;;;;13.88;10.48;;;;;;;;;;6179041;23;20021;-89
2022/03/13 14:41:20;;;;;;;14.65;11.07;;;;;;;;;;6154364;23;20059;-88
2022/03/13 14:43:46;;;;;;;18.45;11.65;;;;;;;;;;6179094;23;20019;-88
2022/03/13 14:46:13;;;;;;;13.27;10.95;;;;;;;;;;6179856;23;20055;-88
2022/03/13 14:48:40;;;;;;;15.60;10.77;;;;;;;;;;6131629;23;20391;-88